Flight Track Log - Related Links

Times and Time Zones

All times are in EDT time to prevent confusion due to time zone crossing. See the SNC1612 flight status page for this flight to view local times or setup timezone preferences in your user account.

Time Position Orientation Groundspeed Altitude Reporting Facility
EDT Latitude Longitude Course Direction KTS MPH feet Rate Location/Type
Sat 07:21:10 AM 39.8625 -88.7272 73° East 120 138 4,400  Level Chicago Center
Sat 07:22:11 AM 39.8744 -88.6831 71° East 125 144 5,000 298 Climbing Chicago Center
Sat 07:23:11 AM 39.8894 -88.6314 69° East 136 157 5,000  Level Chicago Center
Sat 07:24:00 AM 39.9355 -88.5208 64° Northeast  Level Estimated
Sat 07:24:12 AM 39.9156 -88.5717 60° Northeast 156 180 5,000  Level Chicago Center
Sat 07:25:00 AM 39.9567 -88.4658 63° Northeast  Level FlightAware Approximate
Sat 07:25:13 AM 39.9461 -88.5131 56° Northeast 174 200 5,000  Level Chicago Center
Sat 07:26:13 AM 39.9756 -88.4561 56° Northeast 183 211 5,000  Level Chicago Center
Sat 07:27:14 AM 40.0014 -88.3975 60° Northeast 186 214 5,000  Level Chicago Center
Sat 07:28:15 AM 40.0231 -88.3261 68° East 184 212 5,000  Level Chicago Center
Sat 07:29:16 AM 40.0400 -88.2650 70° East 180 207 5,000  Level Chicago Center
Sat 07:30:16 AM 40.0575 -88.2031 70° East 181 208 5,000  Level Chicago Center
Sat 07:31:17 AM 40.0761 -88.1414 68° East 182 209 5,000  Level Chicago Center
Sat 07:32:18 AM 40.0950 -88.0825 67° East 182 209 5,000 -246 Level Chicago Center
Sat 07:33:19 AM 40.1158 -88.0222 66° East 183 211 4,500 -492 Descending Chicago Center
Sat 07:34:20 AM 40.1344 -87.9656 67° East 179 206 4,000 -541 Descending Chicago Center
Sat 07:35:21 AM 40.1503 -87.9089 70° East 174 200 3,400 -443 Descending Chicago Center
Sat 07:36:22 AM 40.1650 -87.8531 71° East 169 194 3,100 -295 Descending Chicago Center
Sat 07:37:23 AM 40.1781 -87.7811 77° East 168 193 2,800 -246 Descending Chicago Center
Sat 07:38:24 AM 40.1817 -87.7208 85° East 168 193 2,600 -295 Descending Chicago Center
Sat 07:39:25 AM 40.1842 -87.6672 86° East 163 188 2,200 -446 Descending Chicago Center
Sat 07:40:25 AM 40.1856 -87.6172 88° East 153 176 1,700 -347 Descending Chicago Center
Sat 07:41:26 AM 40.1847 -87.5764 92° East 149 171 1,500 -197 Descending Chicago Center
Sat 07:43:00 AM 40.1833 -87.5833 90° East  Level FlightAware Approximate

Login

Don't have an account? Register now (free) for customized features, flight alerts, and more!